sensor_id;sensor_type;location;lat;lon;timestamp;P1;durP1;ratioP1;P2;durP2;ratioP2
13566;SDS011;6855;48.112;11.298;2023-04-16T00:02:00;9.10;;;3.23;;
13566;SDS011;6855;48.112;11.298;2023-04-16T00:04:27;5.47;;;3.17;;
13566;SDS011;6855;48.112;11.298;2023-04-16T00:06:54;4.37;;;3.47;;
13566;SDS011;6855;48.112;11.298;2023-04-16T00:09:21;5.50;;;3.37;;
13566;SDS011;6855;48.112;11.298;2023-04-16T00:11:48;4.93;;;3.57;;
13566;SDS011;6855;48.112;11.298;2023-04-16T00:14:17;3.53;;;3.03;;
13566;SDS011;6855;48.112;11.298;2023-04-16T00:16:44;4.50;;;3.50;;
13566;SDS011;6855;48.112;11.298;2023-04-16T00:19:11;3.97;;;3.17;;
13566;SDS011;6855;48.112;11.298;2023-04-16T00:21:38;3.40;;;2.97;;
13566;SDS011;6855;48.112;11.298;2023-04-16T00:24:06;4.83;;;2.80;;
13566;SDS011;6855;48.112;11.298;2023-04-16T00:26:33;3.23;;;2.90;;
13566;SDS011;6855;48.112;11.298;2023-04-16T00:29:00;3.30;;;2.83;;
13566;SDS011;6855;48.112;11.298;2023-04-16T00:31:29;3.00;;;2.30;;
13566;SDS011;6855;48.112;11.298;2023-04-16T00:33:56;3.97;;;2.77;;
13566;SDS011;6855;48.112;11.298;2023-04-16T00:36:23;4.20;;;2.57;;
13566;SDS011;6855;48.112;11.298;2023-04-16T00:38:51;2.97;;;2.43;;
13566;SDS011;6855;48.112;11.298;2023-04-16T00:41:18;3.53;;;2.53;;
13566;SDS011;6855;48.112;11.298;2023-04-16T00:43:45;2.80;;;2.50;;
13566;SDS011;6855;48.112;11.298;2023-04-16T00:46:12;2.40;;;1.93;;
13566;SDS011;6855;48.112;11.298;2023-04-16T00:48:42;2.47;;;2.20;;
13566;SDS011;6855;48.112;11.298;2023-04-16T00:51:10;2.70;;;1.97;;
13566;SDS011;6855;48.112;11.298;2023-04-16T00:53:37;3.60;;;1.77;;
13566;SDS011;6855;48.112;11.298;2023-04-16T00:56:05;2.90;;;2.00;;
13566;SDS011;6855;48.112;11.298;2023-04-16T00:58:33;2.60;;;2.00;;
13566;SDS011;6855;48.112;11.298;2023-04-16T01:01:00;2.50;;;1.90;;
13566;SDS011;6855;48.112;11.298;2023-04-16T01:03:30;3.07;;;1.90;;
13566;SDS011;6855;48.112;11.298;2023-04-16T01:06:02;2.70;;;2.20;;
13566;SDS011;6855;48.112;11.298;2023-04-16T01:08:29;3.50;;;2.63;;
13566;SDS011;6855;48.112;11.298;2023-04-16T01:10:56;3.70;;;2.53;;
13566;SDS011;6855;48.112;11.298;2023-04-16T01:13:23;2.83;;;2.53;;
13566;SDS011;6855;48.112;11.298;2023-04-16T01:15:50;3.47;;;2.67;;
13566;SDS011;6855;48.112;11.298;2023-04-16T01:18:18;5.23;;;2.80;;
13566;SDS011;6855;48.112;11.298;2023-04-16T01:20:47;4.80;;;3.10;;
13566;SDS011;6855;48.112;11.298;2023-04-16T01:23:15;3.50;;;2.70;;
13566;SDS011;6855;48.112;11.298;2023-04-16T01:25:43;3.60;;;3.00;;
13566;SDS011;6855;48.112;11.298;2023-04-16T01:28:10;4.00;;;2.70;;
13566;SDS011;6855;48.112;11.298;2023-04-16T01:30:37;4.27;;;2.77;;
13566;SDS011;6855;48.112;11.298;2023-04-16T01:33:05;4.57;;;2.57;;
13566;SDS011;6855;48.112;11.298;2023-04-16T01:35:33;3.20;;;2.50;;
13566;SDS011;6855;48.112;11.298;2023-04-16T01:38:01;3.50;;;2.77;;
13566;SDS011;6855;48.112;11.298;2023-04-16T01:40:29;3.50;;;3.10;;
13566;SDS011;6855;48.112;11.298;2023-04-16T01:42:56;2.87;;;2.67;;
13566;SDS011;6855;48.112;11.298;2023-04-16T01:45:23;4.77;;;3.20;;
13566;SDS011;6855;48.112;11.298;2023-04-16T01:47:50;4.30;;;3.10;;
13566;SDS011;6855;48.112;11.298;2023-04-16T01:50:18;2.80;;;2.50;;
13566;SDS011;6855;48.112;11.298;2023-04-16T01:52:45;7.10;;;3.20;;
13566;SDS011;6855;48.112;11.298;2023-04-16T01:55:14;4.10;;;3.10;;
13566;SDS011;6855;48.112;11.298;2023-04-16T01:57:41;5.00;;;3.83;;
13566;SDS011;6855;48.112;11.298;2023-04-16T02:00:08;4.53;;;3.70;;
13566;SDS011;6855;48.112;11.298;2023-04-16T02:02:36;3.87;;;3.37;;
13566;SDS011;6855;48.112;11.298;2023-04-16T02:05:03;4.20;;;3.10;;
13566;SDS011;6855;48.112;11.298;2023-04-16T02:07:30;8.10;;;3.23;;
13566;SDS011;6855;48.112;11.298;2023-04-16T02:09:58;4.13;;;2.80;;
13566;SDS011;6855;48.112;11.298;2023-04-16T02:12:26;3.97;;;3.07;;
13566;SDS011;6855;48.112;11.298;2023-04-16T02:14:53;3.17;;;2.50;;
13566;SDS011;6855;48.112;11.298;2023-04-16T02:17:21;3.47;;;3.10;;
13566;SDS011;6855;48.112;11.298;2023-04-16T02:19:48;5.60;;;3.40;;
13566;SDS011;6855;48.112;11.298;2023-04-16T02:22:15;4.20;;;3.60;;
13566;SDS011;6855;48.112;11.298;2023-04-16T02:24:42;3.17;;;2.60;;
13566;SDS011;6855;48.112;11.298;2023-04-16T02:27:09;3.37;;;2.90;;
13566;SDS011;6855;48.112;11.298;2023-04-16T02:29:38;4.33;;;2.90;;
13566;SDS011;6855;48.112;11.298;2023-04-16T02:32:05;3.10;;;2.60;;
13566;SDS011;6855;48.112;11.298;2023-04-16T02:34:32;3.83;;;2.33;;
13566;SDS011;6855;48.112;11.298;2023-04-16T02:36:59;3.63;;;2.77;;
13566;SDS011;6855;48.112;11.298;2023-04-16T02:39:26;3.63;;;2.67;;
13566;SDS011;6855;48.112;11.298;2023-04-16T02:41:54;3.67;;;2.40;;
13566;SDS011;6855;48.112;11.298;2023-04-16T02:44:22;3.53;;;2.23;;
13566;SDS011;6855;48.112;11.298;2023-04-16T02:46:50;3.17;;;2.60;;
13566;SDS011;6855;48.112;11.298;2023-04-16T02:49:17;3.00;;;2.17;;
13566;SDS011;6855;48.112;11.298;2023-04-16T02:51:44;2.40;;;2.20;;
13566;SDS011;6855;48.112;11.298;2023-04-16T02:54:12;2.57;;;2.37;;
13566;SDS011;6855;48.112;11.298;2023-04-16T02:56:39;2.80;;;2.43;;
13566;SDS011;6855;48.112;11.298;2023-04-16T02:59:06;2.90;;;2.43;;
13566;SDS011;6855;48.112;11.298;2023-04-16T03:01:33;2.67;;;2.47;;
13566;SDS011;6855;48.112;11.298;2023-04-16T03:04:02;2.87;;;2.50;;
13566;SDS011;6855;48.112;11.298;2023-04-16T03:06:29;2.60;;;2.40;;
13566;SDS011;6855;48.112;11.298;2023-04-16T03:08:56;3.13;;;2.40;;
13566;SDS011;6855;48.112;11.298;2023-04-16T03:11:24;2.97;;;2.17;;
13566;SDS011;6855;48.112;11.298;2023-04-16T03:13:51;5.53;;;2.57;;
13566;SDS011;6855;48.112;11.298;2023-04-16T03:16:18;4.07;;;2.50;;
13566;SDS011;6855;48.112;11.298;2023-04-16T03:18:45;3.20;;;2.30;;
13566;SDS011;6855;48.112;11.298;2023-04-16T03:21:14;3.03;;;2.73;;
13566;SDS011;6855;48.112;11.298;2023-04-16T03:23:41;4.30;;;2.67;;
13566;SDS011;6855;48.112;11.298;2023-04-16T03:26:08;3.93;;;2.93;;
13566;SDS011;6855;48.112;11.298;2023-04-16T03:28:35;2.80;;;2.53;;
13566;SDS011;6855;48.112;11.298;2023-04-16T03:31:02;2.97;;;2.70;;
13566;SDS011;6855;48.112;11.298;2023-04-16T03:33:30;3.40;;;2.90;;
13566;SDS011;6855;48.112;11.298;2023-04-16T03:35:57;3.70;;;2.77;;
13566;SDS011;6855;48.112;11.298;2023-04-16T03:38:25;3.97;;;2.97;;
13566;SDS011;6855;48.112;11.298;2023-04-16T03:40:53;2.90;;;2.43;;
13566;SDS011;6855;48.112;11.298;2023-04-16T03:43:20;3.03;;;2.73;;
13566;SDS011;6855;48.112;11.298;2023-04-16T03:45:47;3.40;;;2.83;;
13566;SDS011;6855;48.112;11.298;2023-04-16T03:48:14;3.40;;;3.03;;
13566;SDS011;6855;48.112;11.298;2023-04-16T03:50:43;5.47;;;3.00;;
13566;SDS011;6855;48.112;11.298;2023-04-16T03:53:11;3.80;;;3.10;;
13566;SDS011;6855;48.112;11.298;2023-04-16T03:55:40;2.97;;;2.70;;
13566;SDS011;6855;48.112;11.298;2023-04-16T03:58:07;3.20;;;2.83;;
13566;SDS011;6855;48.112;11.298;2023-04-16T04:00:35;3.63;;;3.03;;
13566;SDS011;6855;48.112;11.298;2023-04-16T04:03:02;4.57;;;3.50;;
13566;SDS011;6855;48.112;11.298;2023-04-16T04:05:29;4.33;;;2.63;;
13566;SDS011;6855;48.112;11.298;2023-04-16T04:07:56;3.57;;;3.23;;
13566;SDS011;6855;48.112;11.298;2023-04-16T04:10:23;4.10;;;2.67;;
13566;SDS011;6855;48.112;11.298;2023-04-16T04:12:52;4.20;;;3.27;;
13566;SDS011;6855;48.112;11.298;2023-04-16T04:15:19;4.10;;;3.20;;
13566;SDS011;6855;48.112;11.298;2023-04-16T04:17:46;5.23;;;2.97;;
13566;SDS011;6855;48.112;11.298;2023-04-16T04:20:13;3.40;;;3.03;;
13566;SDS011;6855;48.112;11.298;2023-04-16T04:22:41;3.00;;;2.60;;
13566;SDS011;6855;48.112;11.298;2023-04-16T04:25:09;4.07;;;2.63;;
13566;SDS011;6855;48.112;11.298;2023-04-16T04:27:36;3.93;;;2.70;;
13566;SDS011;6855;48.112;11.298;2023-04-16T04:30:06;3.87;;;2.90;;
13566;SDS011;6855;48.112;11.298;2023-04-16T04:32:33;3.43;;;2.80;;
13566;SDS011;6855;48.112;11.298;2023-04-16T04:35:01;3.83;;;2.90;;
13566;SDS011;6855;48.112;11.298;2023-04-16T04:37:28;3.50;;;2.90;;
13566;SDS011;6855;48.112;11.298;2023-04-16T04:39:55;3.40;;;2.57;;
13566;SDS011;6855;48.112;11.298;2023-04-16T04:42:23;4.07;;;3.03;;
13566;SDS011;6855;48.112;11.298;2023-04-16T04:44:50;3.37;;;2.83;;
13566;SDS011;6855;48.112;11.298;2023-04-16T04:47:19;2.60;;;2.40;;
13566;SDS011;6855;48.112;11.298;2023-04-16T04:49:46;3.17;;;2.70;;
13566;SDS011;6855;48.112;11.298;2023-04-16T04:52:13;3.23;;;2.93;;
13566;SDS011;6855;48.112;11.298;2023-04-16T04:54:40;2.93;;;2.70;;
13566;SDS011;6855;48.112;11.298;2023-04-16T04:57:08;4.80;;;2.80;;
13566;SDS011;6855;48.112;11.298;2023-04-16T04:59:35;3.10;;;2.80;;
13566;SDS011;6855;48.112;11.298;2023-04-16T05:02:02;4.23;;;3.10;;
13566;SDS011;6855;48.112;11.298;2023-04-16T05:04:31;3.97;;;3.40;;
13566;SDS011;6855;48.112;11.298;2023-04-16T05:06:58;3.10;;;2.80;;
13566;SDS011;6855;48.112;11.298;2023-04-16T05:09:25;4.27;;;2.77;;
13566;SDS011;6855;48.112;11.298;2023-04-16T05:11:53;2.40;;;2.20;;
13566;SDS011;6855;48.112;11.298;2023-04-16T05:14:21;2.13;;;1.93;;
13566;SDS011;6855;48.112;11.298;2023-04-16T05:16:48;2.57;;;2.17;;
13566;SDS011;6855;48.112;11.298;2023-04-16T05:19:16;2.53;;;2.30;;
13566;SDS011;6855;48.112;11.298;2023-04-16T05:21:44;2.57;;;2.17;;
13566;SDS011;6855;48.112;11.298;2023-04-16T05:24:11;2.20;;;2.00;;
13566;SDS011;6855;48.112;11.298;2023-04-16T05:26:38;2.20;;;1.90;;
13566;SDS011;6855;48.112;11.298;2023-04-16T05:29:05;3.17;;;1.93;;
13566;SDS011;6855;48.112;11.298;2023-04-16T05:31:33;2.43;;;2.23;;
13566;SDS011;6855;48.112;11.298;2023-04-16T05:34:00;1.73;;;1.60;;
13566;SDS011;6855;48.112;11.298;2023-04-16T05:36:27;2.03;;;1.83;;
13566;SDS011;6855;48.112;11.298;2023-04-16T05:38:56;1.97;;;1.77;;
13566;SDS011;6855;48.112;11.298;2023-04-16T05:41:23;1.43;;;1.33;;
13566;SDS011;6855;48.112;11.298;2023-04-16T05:43:50;2.33;;;1.03;;
13566;SDS011;6855;48.112;11.298;2023-04-16T05:46:17;2.20;;;1.20;;
13566;SDS011;6855;48.112;11.298;2023-04-16T05:48:44;1.10;;;1.00;;
13566;SDS011;6855;48.112;11.298;2023-04-16T05:51:11;1.50;;;1.13;;
13566;SDS011;6855;48.112;11.298;2023-04-16T05:53:39;1.00;;;0.90;;
13566;SDS011;6855;48.112;11.298;2023-04-16T05:56:07;1.10;;;1.00;;
13566;SDS011;6855;48.112;11.298;2023-04-16T05:58:35;1.07;;;1.03;;
13566;SDS011;6855;48.112;11.298;2023-04-16T06:01:02;2.17;;;1.60;;
13566;SDS011;6855;48.112;11.298;2023-04-16T06:03:29;2.33;;;1.50;;
13566;SDS011;6855;48.112;11.298;2023-04-16T06:05:56;1.10;;;1.00;;
13566;SDS011;6855;48.112;11.298;2023-04-16T06:08:23;1.00;;;0.90;;
13566;SDS011;6855;48.112;11.298;2023-04-16T06:10:50;1.30;;;1.20;;
13566;SDS011;6855;48.112;11.298;2023-04-16T06:13:19;0.70;;;0.70;;
13566;SDS011;6855;48.112;11.298;2023-04-16T06:15:46;0.90;;;0.80;;
13566;SDS011;6855;48.112;11.298;2023-04-16T06:18:14;0.80;;;0.80;;
13566;SDS011;6855;48.112;11.298;2023-04-16T06:20:41;1.03;;;0.70;;
13566;SDS011;6855;48.112;11.298;2023-04-16T06:23:08;1.67;;;0.97;;
13566;SDS011;6855;48.112;11.298;2023-04-16T06:25:35;0.80;;;0.70;;
13566;SDS011;6855;48.112;11.298;2023-04-16T06:28:02;0.60;;;0.60;;
13566;SDS011;6855;48.112;11.298;2023-04-16T06:30:31;0.87;;;0.83;;
13566;SDS011;6855;48.112;11.298;2023-04-16T06:32:59;1.27;;;0.73;;
13566;SDS011;6855;48.112;11.298;2023-04-16T06:35:26;0.90;;;0.80;;
13566;SDS011;6855;48.112;11.298;2023-04-16T06:37:53;1.80;;;0.70;;
13566;SDS011;6855;48.112;11.298;2023-04-16T06:40:20;2.00;;;0.70;;
13566;SDS011;6855;48.112;11.298;2023-04-16T06:42:48;1.07;;;0.80;;
13566;SDS011;6855;48.112;11.298;2023-04-16T06:45:15;0.67;;;0.60;;
13566;SDS011;6855;48.112;11.298;2023-04-16T06:47:44;0.63;;;0.63;;
13566;SDS011;6855;48.112;11.298;2023-04-16T06:50:12;0.60;;;0.60;;
13566;SDS011;6855;48.112;11.298;2023-04-16T06:52:39;0.60;;;0.60;;
13566;SDS011;6855;48.112;11.298;2023-04-16T06:55:07;0.53;;;0.53;;
13566;SDS011;6855;48.112;11.298;2023-04-16T06:57:34;0.63;;;0.63;;
13566;SDS011;6855;48.112;11.298;2023-04-16T07:00:01;0.77;;;0.60;;
13566;SDS011;6855;48.112;11.298;2023-04-16T07:02:29;0.73;;;0.70;;
13566;SDS011;6855;48.112;11.298;2023-04-16T07:04:57;0.70;;;0.63;;
13566;SDS011;6855;48.112;11.298;2023-04-16T07:07:25;0.50;;;0.50;;
13566;SDS011;6855;48.112;11.298;2023-04-16T07:09:52;0.57;;;0.57;;
13566;SDS011;6855;48.112;11.298;2023-04-16T07:12:19;0.53;;;0.50;;
13566;SDS011;6855;48.112;11.298;2023-04-16T07:14:46;1.20;;;0.57;;
13566;SDS011;6855;48.112;11.298;2023-04-16T07:17:14;0.80;;;0.50;;
13566;SDS011;6855;48.112;11.298;2023-04-16T07:19:41;2.60;;;0.90;;
13566;SDS011;6855;48.112;11.298;2023-04-16T07:22:09;0.70;;;0.67;;
13566;SDS011;6855;48.112;11.298;2023-04-16T07:24:36;0.60;;;0.50;;
13566;SDS011;6855;48.112;11.298;2023-04-16T07:27:04;0.50;;;0.50;;
13566;SDS011;6855;48.112;11.298;2023-04-16T07:29:31;0.70;;;0.57;;
13566;SDS011;6855;48.112;11.298;2023-04-16T07:31:58;0.80;;;0.50;;
13566;SDS011;6855;48.112;11.298;2023-04-16T07:34:25;0.60;;;0.53;;
13566;SDS011;6855;48.112;11.298;2023-04-16T07:36:52;0.87;;;0.80;;
13566;SDS011;6855;48.112;11.298;2023-04-16T07:39:21;2.97;;;0.97;;
13566;SDS011;6855;48.112;11.298;2023-04-16T07:41:48;0.67;;;0.67;;
13566;SDS011;6855;48.112;11.298;2023-04-16T07:44:16;0.60;;;0.60;;
13566;SDS011;6855;48.112;11.298;2023-04-16T07:46:43;0.50;;;0.50;;
13566;SDS011;6855;48.112;11.298;2023-04-16T07:49:10;0.70;;;0.60;;
13566;SDS011;6855;48.112;11.298;2023-04-16T07:51:38;0.73;;;0.60;;
13566;SDS011;6855;48.112;11.298;2023-04-16T07:54:05;1.00;;;0.80;;
13566;SDS011;6855;48.112;11.298;2023-04-16T07:56:34;4.20;;;0.70;;
13566;SDS011;6855;48.112;11.298;2023-04-16T07:59:01;0.50;;;0.40;;
13566;SDS011;6855;48.112;11.298;2023-04-16T08:01:28;0.63;;;0.50;;
13566;SDS011;6855;48.112;11.298;2023-04-16T08:03:56;0.50;;;0.50;;
13566;SDS011;6855;48.112;11.298;2023-04-16T08:06:23;0.60;;;0.57;;
13566;SDS011;6855;48.112;11.298;2023-04-16T08:08:51;0.60;;;0.60;;
13566;SDS011;6855;48.112;11.298;2023-04-16T08:11:19;0.60;;;0.60;;
13566;SDS011;6855;48.112;11.298;2023-04-16T08:13:47;0.50;;;0.40;;
13566;SDS011;6855;48.112;11.298;2023-04-16T08:16:15;0.80;;;0.70;;
13566;SDS011;6855;48.112;11.298;2023-04-16T08:18:42;0.90;;;0.60;;
13566;SDS011;6855;48.112;11.298;2023-04-16T08:21:10;1.47;;;0.70;;
13566;SDS011;6855;48.112;11.298;2023-04-16T08:23:37;0.70;;;0.70;;
13566;SDS011;6855;48.112;11.298;2023-04-16T08:26:04;1.30;;;0.80;;
13566;SDS011;6855;48.112;11.298;2023-04-16T08:28:31;1.87;;;1.13;;
13566;SDS011;6855;48.112;11.298;2023-04-16T08:31:00;3.03;;;1.57;;
13566;SDS011;6855;48.112;11.298;2023-04-16T08:33:27;0.80;;;0.80;;
13566;SDS011;6855;48.112;11.298;2023-04-16T08:35:54;0.80;;;0.70;;
13566;SDS011;6855;48.112;11.298;2023-04-16T08:38:22;0.80;;;0.63;;
13566;SDS011;6855;48.112;11.298;2023-04-16T08:40:49;0.90;;;0.77;;
13566;SDS011;6855;48.112;11.298;2023-04-16T08:43:16;1.10;;;0.70;;
13566;SDS011;6855;48.112;11.298;2023-04-16T08:45:44;0.90;;;0.60;;
13566;SDS011;6855;48.112;11.298;2023-04-16T08:48:14;0.60;;;0.60;;
13566;SDS011;6855;48.112;11.298;2023-04-16T08:50:44;1.03;;;0.70;;
13566;SDS011;6855;48.112;11.298;2023-04-16T08:53:13;0.60;;;0.50;;
13566;SDS011;6855;48.112;11.298;2023-04-16T08:55:45;1.40;;;0.70;;
13566;SDS011;6855;48.112;11.298;2023-04-16T08:58:13;1.00;;;0.50;;
13566;SDS011;6855;48.112;11.298;2023-04-16T09:00:41;0.70;;;0.70;;
13566;SDS011;6855;48.112;11.298;2023-04-16T09:03:10;0.70;;;0.50;;
13566;SDS011;6855;48.112;11.298;2023-04-16T09:05:40;2.63;;;1.23;;
13566;SDS011;6855;48.112;11.298;2023-04-16T09:08:08;1.13;;;0.70;;
13566;SDS011;6855;48.112;11.298;2023-04-16T09:10:38;0.87;;;0.70;;
13566;SDS011;6855;48.112;11.298;2023-04-16T09:13:08;0.67;;;0.63;;
13566;SDS011;6855;48.112;11.298;2023-04-16T09:15:37;0.70;;;0.60;;
13566;SDS011;6855;48.112;11.298;2023-04-16T09:18:08;0.80;;;0.63;;
13566;SDS011;6855;48.112;11.298;2023-04-16T09:20:36;1.10;;;0.73;;
13566;SDS011;6855;48.112;11.298;2023-04-16T09:23:07;0.90;;;0.60;;
13566;SDS011;6855;48.112;11.298;2023-04-16T09:25:35;0.60;;;0.60;;
13566;SDS011;6855;48.112;11.298;2023-04-16T09:28:02;0.83;;;0.60;;
13566;SDS011;6855;48.112;11.298;2023-04-16T09:30:32;0.90;;;0.70;;
13566;SDS011;6855;48.112;11.298;2023-04-16T09:33:11;0.60;;;0.60;;
13566;SDS011;6855;48.112;11.298;2023-04-16T09:35:43;0.63;;;0.63;;
13566;SDS011;6855;48.112;11.298;2023-04-16T09:38:13;0.60;;;0.60;;
13566;SDS011;6855;48.112;11.298;2023-04-16T09:40:40;0.60;;;0.50;;
13566;SDS011;6855;48.112;11.298;2023-04-16T09:43:10;1.30;;;0.70;;
13566;SDS011;6855;48.112;11.298;2023-04-16T09:45:51;1.13;;;0.93;;
13566;SDS011;6855;48.112;11.298;2023-04-16T09:48:27;1.00;;;0.60;;
13566;SDS011;6855;48.112;11.298;2023-04-16T09:50:55;0.70;;;0.60;;
13566;SDS011;6855;48.112;11.298;2023-04-16T09:53:26;1.00;;;0.70;;
13566;SDS011;6855;48.112;11.298;2023-04-16T09:55:54;0.70;;;0.70;;
13566;SDS011;6855;48.112;11.298;2023-04-16T09:58:24;0.70;;;0.50;;
13566;SDS011;6855;48.112;11.298;2023-04-16T10:00:59;0.60;;;0.50;;
13566;SDS011;6855;48.112;11.298;2023-04-16T10:03:29;0.63;;;0.63;;
13566;SDS011;6855;48.112;11.298;2023-04-16T10:05:58;1.20;;;0.77;;
13566;SDS011;6855;48.112;11.298;2023-04-16T10:08:28;1.57;;;1.10;;
13566;SDS011;6855;48.112;11.298;2023-04-16T10:10:55;1.70;;;0.97;;
13566;SDS011;6855;48.112;11.298;2023-04-16T10:13:22;1.13;;;1.00;;
13566;SDS011;6855;48.112;11.298;2023-04-16T10:15:53;0.80;;;0.80;;
13566;SDS011;6855;48.112;11.298;2023-04-16T10:18:22;0.50;;;0.50;;
13566;SDS011;6855;48.112;11.298;2023-04-16T10:20:49;0.53;;;0.50;;
13566;SDS011;6855;48.112;11.298;2023-04-16T10:23:18;0.53;;;0.50;;
13566;SDS011;6855;48.112;11.298;2023-04-16T10:25:50;0.60;;;0.50;;
13566;SDS011;6855;48.112;11.298;2023-04-16T10:28:18;0.90;;;0.70;;
13566;SDS011;6855;48.112;11.298;2023-04-16T10:30:46;0.60;;;0.60;;
13566;SDS011;6855;48.112;11.298;2023-04-16T10:33:18;0.60;;;0.60;;
13566;SDS011;6855;48.112;11.298;2023-04-16T10:35:48;0.70;;;0.70;;
13566;SDS011;6855;48.112;11.298;2023-04-16T10:38:25;0.70;;;0.67;;
13566;SDS011;6855;48.112;11.298;2023-04-16T10:41:00;1.40;;;1.03;;
13566;SDS011;6855;48.112;11.298;2023-04-16T10:43:29;0.60;;;0.60;;
13566;SDS011;6855;48.112;11.298;2023-04-16T10:45:56;0.60;;;0.60;;
13566;SDS011;6855;48.112;11.298;2023-04-16T10:48:37;0.63;;;0.50;;
13566;SDS011;6855;48.112;11.298;2023-04-16T10:51:06;0.80;;;0.60;;
13566;SDS011;6855;48.112;11.298;2023-04-16T10:53:35;0.97;;;0.50;;
13566;SDS011;6855;48.112;11.298;2023-04-16T10:56:10;0.67;;;0.60;;
13566;SDS011;6855;48.112;11.298;2023-04-16T10:58:39;0.50;;;0.50;;
13566;SDS011;6855;48.112;11.298;2023-04-16T11:01:09;0.60;;;0.60;;
13566;SDS011;6855;48.112;11.298;2023-04-16T11:03:39;0.97;;;0.60;;
13566;SDS011;6855;48.112;11.298;2023-04-16T11:06:13;0.50;;;0.50;;
13566;SDS011;6855;48.112;11.298;2023-04-16T11:08:41;0.67;;;0.60;;
13566;SDS011;6855;48.112;11.298;2023-04-16T11:11:11;0.80;;;0.60;;
13566;SDS011;6855;48.112;11.298;2023-04-16T11:13:40;0.83;;;0.60;;
13566;SDS011;6855;48.112;11.298;2023-04-16T11:16:08;0.70;;;0.60;;
13566;SDS011;6855;48.112;11.298;2023-04-16T11:18:35;1.17;;;1.07;;
13566;SDS011;6855;48.112;11.298;2023-04-16T11:21:06;0.83;;;0.60;;
13566;SDS011;6855;48.112;11.298;2023-04-16T11:23:44;0.80;;;0.80;;
13566;SDS011;6855;48.112;11.298;2023-04-16T11:26:19;0.80;;;0.70;;
13566;SDS011;6855;48.112;11.298;2023-04-16T11:28:47;1.10;;;0.80;;
13566;SDS011;6855;48.112;11.298;2023-04-16T11:31:14;0.70;;;0.63;;
13566;SDS011;6855;48.112;11.298;2023-04-16T11:33:41;0.60;;;0.60;;
13566;SDS011;6855;48.112;11.298;2023-04-16T11:36:08;0.97;;;0.60;;
13566;SDS011;6855;48.112;11.298;2023-04-16T11:38:36;0.70;;;0.60;;
13566;SDS011;6855;48.112;11.298;2023-04-16T11:41:05;0.60;;;0.60;;
13566;SDS011;6855;48.112;11.298;2023-04-16T11:43:33;1.13;;;0.70;;
13566;SDS011;6855;48.112;11.298;2023-04-16T11:46:01;0.63;;;0.50;;
13566;SDS011;6855;48.112;11.298;2023-04-16T11:51:11;0.70;;;0.63;;
13566;SDS011;6855;48.112;11.298;2023-04-16T11:53:43;0.70;;;0.60;;
13566;SDS011;6855;48.112;11.298;2023-04-16T11:56:11;0.70;;;0.60;;
13566;SDS011;6855;48.112;11.298;2023-04-16T11:58:39;0.60;;;0.60;;
13566;SDS011;6855;48.112;11.298;2023-04-16T12:01:07;0.87;;;0.63;;
13566;SDS011;6855;48.112;11.298;2023-04-16T12:03:38;0.70;;;0.70;;
13566;SDS011;6855;48.112;11.298;2023-04-16T12:06:08;0.73;;;0.70;;
13566;SDS011;6855;48.112;11.298;2023-04-16T12:08:35;0.87;;;0.70;;
13566;SDS011;6855;48.112;11.298;2023-04-16T12:11:03;1.43;;;0.87;;
13566;SDS011;6855;48.112;11.298;2023-04-16T12:13:30;1.83;;;0.83;;
13566;SDS011;6855;48.112;11.298;2023-04-16T12:16:14;1.77;;;0.83;;
13566;SDS011;6855;48.112;11.298;2023-04-16T12:18:57;0.77;;;0.77;;
13566;SDS011;6855;48.112;11.298;2023-04-16T12:21:37;1.97;;;0.70;;
13566;SDS011;6855;48.112;11.298;2023-04-16T12:24:05;0.77;;;0.60;;
13566;SDS011;6855;48.112;11.298;2023-04-16T12:26:39;0.90;;;0.67;;
13566;SDS011;6855;48.112;11.298;2023-04-16T12:29:17;0.60;;;0.60;;
13566;SDS011;6855;48.112;11.298;2023-04-16T12:31:47;0.90;;;0.80;;
13566;SDS011;6855;48.112;11.298;2023-04-16T12:34:15;0.60;;;0.60;;
13566;SDS011;6855;48.112;11.298;2023-04-16T12:36:42;0.70;;;0.60;;
13566;SDS011;6855;48.112;11.298;2023-04-16T12:39:09;0.70;;;0.70;;
13566;SDS011;6855;48.112;11.298;2023-04-16T12:41:37;0.60;;;0.60;;
13566;SDS011;6855;48.112;11.298;2023-04-16T12:44:05;1.20;;;0.63;;
13566;SDS011;6855;48.112;11.298;2023-04-16T12:46:36;0.73;;;0.70;;
13566;SDS011;6855;48.112;11.298;2023-04-16T12:49:04;1.63;;;1.10;;
13566;SDS011;6855;48.112;11.298;2023-04-16T12:51:32;0.70;;;0.70;;
13566;SDS011;6855;48.112;11.298;2023-04-16T12:53:59;0.70;;;0.60;;
13566;SDS011;6855;48.112;11.298;2023-04-16T12:56:26;1.20;;;0.67;;
13566;SDS011;6855;48.112;11.298;2023-04-16T12:58:53;1.07;;;0.70;;
13566;SDS011;6855;48.112;11.298;2023-04-16T13:01:21;0.70;;;0.60;;
13566;SDS011;6855;48.112;11.298;2023-04-16T13:03:48;1.10;;;0.70;;
13566;SDS011;6855;48.112;11.298;2023-04-16T13:06:17;1.43;;;0.90;;
13566;SDS011;6855;48.112;11.298;2023-04-16T13:08:44;0.70;;;0.70;;
13566;SDS011;6855;48.112;11.298;2023-04-16T13:11:14;0.63;;;0.60;;
13566;SDS011;6855;48.112;11.298;2023-04-16T13:13:43;0.80;;;0.70;;
13566;SDS011;6855;48.112;11.298;2023-04-16T13:16:12;0.60;;;0.50;;
13566;SDS011;6855;48.112;11.298;2023-04-16T13:18:43;0.70;;;0.70;;
13566;SDS011;6855;48.112;11.298;2023-04-16T13:21:10;1.67;;;0.70;;
13566;SDS011;6855;48.112;11.298;2023-04-16T13:23:39;0.93;;;0.80;;
13566;SDS011;6855;48.112;11.298;2023-04-16T13:26:08;0.93;;;0.73;;
13566;SDS011;6855;48.112;11.298;2023-04-16T13:28:37;0.80;;;0.57;;
13566;SDS011;6855;48.112;11.298;2023-04-16T13:31:06;0.90;;;0.63;;
13566;SDS011;6855;48.112;11.298;2023-04-16T13:33:34;1.17;;;0.90;;
13566;SDS011;6855;48.112;11.298;2023-04-16T13:36:02;2.07;;;1.30;;
13566;SDS011;6855;48.112;11.298;2023-04-16T13:38:29;1.53;;;1.40;;
13566;SDS011;6855;48.112;11.298;2023-04-16T13:40:58;0.93;;;0.83;;
13566;SDS011;6855;48.112;11.298;2023-04-16T13:43:25;1.00;;;0.90;;
13566;SDS011;6855;48.112;11.298;2023-04-16T13:45:52;3.00;;;0.87;;
13566;SDS011;6855;48.112;11.298;2023-04-16T13:48:19;1.40;;;1.10;;
13566;SDS011;6855;48.112;11.298;2023-04-16T13:50:47;1.90;;;1.10;;
13566;SDS011;6855;48.112;11.298;2023-04-16T13:53:14;2.37;;;1.40;;
13566;SDS011;6855;48.112;11.298;2023-04-16T13:55:41;1.03;;;0.93;;
13566;SDS011;6855;48.112;11.298;2023-04-16T13:58:10;0.93;;;0.90;;
13566;SDS011;6855;48.112;11.298;2023-04-16T14:00:37;0.90;;;0.90;;
13566;SDS011;6855;48.112;11.298;2023-04-16T14:03:04;2.00;;;1.03;;
13566;SDS011;6855;48.112;11.298;2023-04-16T14:05:31;2.00;;;1.40;;
13566;SDS011;6855;48.112;11.298;2023-04-16T14:07:58;1.93;;;1.27;;
13566;SDS011;6855;48.112;11.298;2023-04-16T14:10:26;3.53;;;0.80;;
13566;SDS011;6855;48.112;11.298;2023-04-16T14:12:53;0.90;;;0.77;;
13566;SDS011;6855;48.112;11.298;2023-04-16T14:15:21;1.90;;;1.00;;
13566;SDS011;6855;48.112;11.298;2023-04-16T14:17:51;1.83;;;1.37;;
13566;SDS011;6855;48.112;11.298;2023-04-16T14:20:18;0.90;;;0.70;;
13566;SDS011;6855;48.112;11.298;2023-04-16T14:22:46;0.70;;;0.70;;
13566;SDS011;6855;48.112;11.298;2023-04-16T14:25:13;1.20;;;0.90;;
13566;SDS011;6855;48.112;11.298;2023-04-16T14:27:41;1.00;;;0.77;;
13566;SDS011;6855;48.112;11.298;2023-04-16T14:30:08;1.10;;;0.80;;
13566;SDS011;6855;48.112;11.298;2023-04-16T14:32:37;1.00;;;0.90;;
13566;SDS011;6855;48.112;11.298;2023-04-16T14:35:04;0.70;;;0.60;;
13566;SDS011;6855;48.112;11.298;2023-04-16T14:37:32;0.97;;;0.70;;
13566;SDS011;6855;48.112;11.298;2023-04-16T14:40:00;1.80;;;1.23;;
13566;SDS011;6855;48.112;11.298;2023-04-16T14:42:29;1.20;;;1.00;;
13566;SDS011;6855;48.112;11.298;2023-04-16T14:44:56;1.10;;;0.90;;
13566;SDS011;6855;48.112;11.298;2023-04-16T14:47:23;0.80;;;0.80;;
13566;SDS011;6855;48.112;11.298;2023-04-16T14:49:52;1.23;;;0.93;;
13566;SDS011;6855;48.112;11.298;2023-04-16T14:52:19;1.00;;;0.70;;
13566;SDS011;6855;48.112;11.298;2023-04-16T14:54:46;1.13;;;0.93;;
13566;SDS011;6855;48.112;11.298;2023-04-16T14:57:15;0.90;;;0.80;;